createdAt,value
2023-02-18T00:01:17.288Z,3.22
2023-02-18T00:03:48.594Z,2.70
2023-02-18T00:06:22.113Z,3.55
2023-02-18T00:08:52.743Z,3.40
2023-02-18T00:11:24.576Z,3.03
2023-02-18T00:13:56.525Z,3.17
2023-02-18T00:16:28.411Z,3.70
2023-02-18T00:19:00.299Z,3.53
2023-02-18T00:21:30.377Z,4.32
2023-02-18T00:23:59.835Z,3.58
2023-02-18T00:26:30.645Z,2.95
2023-02-18T00:29:00.335Z,3.47
2023-02-18T00:31:33.643Z,2.85
2023-02-18T00:34:05.665Z,3.33
2023-02-18T00:36:37.288Z,2.07
2023-02-18T00:39:11.598Z,2.60
2023-02-18T00:41:44.600Z,3.67
2023-02-18T00:44:15.260Z,3.07
2023-02-18T00:46:48.034Z,2.90
2023-02-18T00:49:18.739Z,3.08
2023-02-18T00:51:48.503Z,3.03
2023-02-18T00:54:18.717Z,2.33
2023-02-18T00:56:50.295Z,2.72
2023-02-18T00:59:19.843Z,2.53
2023-02-18T01:01:49.646Z,2.50
2023-02-18T01:04:19.323Z,2.60
2023-02-18T01:06:50.779Z,2.65
2023-02-18T01:09:20.338Z,2.95
2023-02-18T01:11:51.198Z,2.58
2023-02-18T01:14:20.694Z,3.13
2023-02-18T01:16:50.121Z,2.60
2023-02-18T01:19:19.793Z,2.70
2023-02-18T01:21:49.243Z,2.42
2023-02-18T01:24:18.682Z,2.83
2023-02-18T01:26:48.197Z,2.53
2023-02-18T01:29:19.695Z,2.63
2023-02-18T01:31:49.187Z,3.08
2023-02-18T01:34:18.848Z,2.90
2023-02-18T01:36:48.272Z,2.58
2023-02-18T01:39:19.806Z,3.40
2023-02-18T01:41:49.297Z,3.15
2023-02-18T01:44:27.128Z,2.80
2023-02-18T01:46:57.321Z,2.33
2023-02-18T01:49:32.123Z,3.38
2023-02-18T01:52:09.019Z,3.28
2023-02-18T01:54:45.874Z,3.55
2023-02-18T01:57:22.069Z,3.72
2023-02-18T01:59:57.897Z,3.17
2023-02-18T02:02:30.562Z,3.30
2023-02-18T02:05:00.230Z,3.20
2023-02-18T02:07:31.189Z,2.97
2023-02-18T02:10:02.473Z,3.53
2023-02-18T02:12:51.596Z,3.00
2023-02-18T02:15:52.659Z,2.95
2023-02-18T02:18:54.314Z,3.17
2023-02-18T02:22:46.805Z,2.70
2023-02-18T02:25:38.087Z,2.67
2023-02-18T02:29:01.204Z,2.97
2023-02-18T02:32:08.036Z,2.92
2023-02-18T02:34:56.616Z,2.90
2023-02-18T02:37:37.513Z,2.55
2023-02-18T02:40:27.502Z,3.20
2023-02-18T02:43:13.768Z,2.65
2023-02-18T02:45:56.219Z,2.78
2023-02-18T02:48:38.834Z,2.67
2023-02-18T02:51:16.887Z,2.30
2023-02-18T02:53:46.480Z,2.65
2023-02-18T02:56:20.600Z,2.60
2023-02-18T02:59:00.727Z,2.20
2023-02-18T03:01:45.794Z,2.50
2023-02-18T03:04:48.299Z,2.88
2023-02-18T03:08:01.658Z,2.50
2023-02-18T03:10:57.001Z,2.30
2023-02-18T03:13:46.446Z,2.28
2023-02-18T03:16:29.533Z,2.50
2023-02-18T03:19:09.347Z,2.60
2023-02-18T03:21:46.749Z,2.20
2023-02-18T03:24:25.118Z,2.55
2023-02-18T03:27:01.975Z,2.80
2023-02-18T03:29:32.299Z,2.22
2023-02-18T03:32:09.011Z,1.92
2023-02-18T03:34:43.251Z,2.30
2023-02-18T03:37:16.283Z,2.10
2023-02-18T03:39:52.603Z,2.20
2023-02-18T03:42:28.414Z,2.20
2023-02-18T03:44:59.140Z,2.13
2023-02-18T03:47:28.939Z,1.85
2023-02-18T03:49:58.364Z,2.17
2023-02-18T03:52:28.004Z,2.05
2023-02-18T03:54:59.385Z,1.92
2023-02-18T11:37:09.888Z,1.27
2023-02-18T11:39:45.865Z,0.85
2023-02-18T11:42:18.570Z,0.98
2023-02-18T11:44:54.260Z,1.00
2023-02-18T11:47:34.096Z,0.80
2023-02-18T11:50:19.256Z,0.63
2023-02-18T11:52:53.839Z,0.77
2023-02-18T11:55:27.285Z,0.70
2023-02-18T11:58:00.837Z,0.90
2023-02-18T12:00:42.948Z,0.60
2023-02-18T12:03:34.736Z,0.68
2023-02-18T12:06:13.779Z,0.90
2023-02-18T12:08:53.895Z,0.60
2023-02-18T12:11:33.256Z,0.90
2023-02-18T12:14:03.447Z,0.63
2023-02-18T12:16:47.345Z,0.73
2023-02-18T12:20:01.466Z,0.60
2023-02-18T12:25:37.479Z,0.75
2023-02-18T12:28:36.418Z,0.60
2023-02-18T12:31:53.027Z,0.68
2023-02-18T12:34:49.226Z,0.90
2023-02-18T12:37:57.743Z,1.00
2023-02-18T12:41:25.159Z,0.50
2023-02-18T12:44:08.131Z,1.20
2023-02-18T12:47:17.205Z,0.70
2023-02-18T12:50:42.256Z,0.80
2023-02-18T12:53:56.648Z,1.00
2023-02-18T12:57:31.613Z,0.68
2023-02-18T13:00:54.325Z,1.05
2023-02-18T13:04:03.988Z,0.80
2023-02-18T13:07:17.039Z,0.93
2023-02-18T13:10:23.888Z,0.80
2023-02-18T13:13:04.276Z,0.75
2023-02-18T13:15:41.664Z,0.82
2023-02-18T13:18:18.138Z,0.80
2023-02-18T13:20:53.809Z,0.88
2023-02-18T13:23:31.207Z,0.68
2023-02-18T13:26:05.586Z,0.88
2023-02-18T13:28:45.958Z,0.90
2023-02-18T13:31:32.539Z,1.00
2023-02-18T13:34:11.985Z,0.90
2023-02-18T13:37:02.504Z,0.90
2023-02-18T13:39:32.648Z,0.73
2023-02-18T13:42:37.015Z,1.35
2023-02-18T13:45:31.919Z,0.85
2023-02-18T13:48:02.730Z,1.00
2023-02-18T13:50:44.387Z,0.70
2023-02-18T13:53:26.500Z,0.68
2023-02-18T13:56:05.835Z,1.73
2023-02-18T13:58:45.290Z,0.93
2023-02-18T14:01:39.506Z,1.83
2023-02-18T14:04:55.913Z,1.10
2023-02-18T14:07:41.501Z,0.70
2023-02-18T14:10:34.873Z,1.13
2023-02-18T14:13:26.897Z,0.90
2023-02-18T14:16:01.889Z,0.90
2023-02-18T14:19:03.231Z,0.60
2023-02-18T14:21:44.085Z,1.27
2023-02-18T14:24:14.690Z,0.75
2023-02-18T14:26:50.263Z,0.88
2023-02-18T14:29:29.761Z,0.80
2023-02-18T14:32:04.847Z,1.00
2023-02-18T14:35:24.160Z,1.05
2023-02-18T14:38:43.932Z,0.68
2023-02-18T14:41:44.437Z,0.80
2023-02-18T14:44:46.421Z,0.77
2023-02-18T14:47:35.572Z,0.68
2023-02-18T14:50:13.861Z,1.00
2023-02-18T14:52:48.613Z,0.52
2023-02-18T14:55:25.348Z,0.75
2023-02-18T14:58:01.225Z,0.80
2023-02-18T15:00:36.092Z,0.65
2023-02-18T15:03:12.790Z,0.80
2023-02-18T15:05:47.763Z,0.70
2023-02-18T15:08:20.193Z,0.75
2023-02-18T15:10:54.961Z,0.50
2023-02-18T15:13:30.533Z,0.50
2023-02-18T15:16:05.165Z,0.90
2023-02-18T15:18:40.163Z,0.82
2023-02-18T15:21:29.662Z,0.85
2023-02-18T15:24:09.561Z,0.90
2023-02-18T15:26:46.922Z,0.73
2023-02-18T15:29:21.347Z,0.70
2023-02-18T15:31:51.761Z,1.02
2023-02-18T15:34:36.926Z,0.70
2023-02-18T15:37:14.006Z,0.65
2023-02-18T15:39:44.837Z,0.75
2023-02-18T15:42:27.744Z,0.88
2023-02-18T15:45:02.747Z,0.88
2023-02-18T15:47:33.315Z,1.00
2023-02-18T15:50:04.682Z,1.13
2023-02-18T15:52:40.181Z,1.08
2023-02-18T15:55:24.138Z,1.00
2023-02-18T15:57:55.442Z,1.10
2023-02-18T16:00:59.745Z,0.88
2023-02-18T16:03:32.546Z,0.90
2023-02-18T16:06:19.432Z,0.77
2023-02-18T16:09:00.651Z,0.68
2023-02-18T16:11:36.683Z,0.80
2023-02-18T16:14:07.118Z,0.90
2023-02-18T16:16:39.483Z,1.00
2023-02-18T16:19:26.017Z,1.23
2023-02-18T16:21:55.428Z,0.65
2023-02-18T16:24:30.328Z,0.90
2023-02-18T16:27:01.534Z,0.90
2023-02-18T16:29:40.938Z,0.80
2023-02-18T16:32:10.672Z,0.80
2023-02-18T16:34:40.257Z,0.93
2023-02-18T16:37:29.234Z,1.40
2023-02-18T16:40:00.343Z,1.20
2023-02-18T16:42:29.888Z,0.90
2023-02-18T16:44:59.380Z,1.08
2023-02-18T16:47:28.906Z,1.40
2023-02-18T16:49:58.802Z,1.30
2023-02-18T16:52:28.418Z,1.38
2023-02-18T16:54:59.300Z,1.38
2023-02-18T16:57:28.762Z,1.60
2023-02-18T16:59:58.966Z,1.50
2023-02-18T17:02:30.277Z,0.85
2023-02-18T17:05:00.104Z,1.02
2023-02-18T17:07:32.588Z,1.00
2023-02-18T17:10:03.607Z,0.70
2023-02-18T17:12:38.615Z,0.70
2023-02-18T17:15:26.170Z,0.90
2023-02-18T17:17:58.160Z,1.45
2023-02-18T17:20:29.936Z,1.10
2023-02-18T17:22:59.773Z,1.13
2023-02-18T17:25:37.200Z,1.40
2023-02-18T17:28:07.593Z,1.17
2023-02-18T17:30:40.799Z,1.10
2023-02-18T17:33:15.889Z,1.63
2023-02-18T17:35:46.226Z,1.30
2023-02-18T17:38:18.261Z,1.40
2023-02-18T17:40:50.008Z,1.17
2023-02-18T17:43:20.516Z,1.35
2023-02-18T17:45:53.949Z,1.25
2023-02-18T17:48:23.531Z,1.27
2023-02-18T17:50:53.559Z,1.10
2023-02-18T17:53:23.555Z,1.30
2023-02-18T17:55:54.717Z,1.30
2023-02-18T17:58:24.189Z,1.15
2023-02-18T18:00:57.548Z,1.35
2023-02-18T18:03:27.243Z,1.45
2023-02-18T18:05:57.628Z,1.60
2023-02-18T18:08:27.169Z,1.20
2023-02-18T18:11:01.381Z,1.13
2023-02-18T18:13:33.124Z,1.10
2023-02-18T18:16:02.607Z,1.30
2023-02-18T18:18:32.502Z,1.50
2023-02-18T18:21:04.401Z,1.00
2023-02-18T18:23:34.963Z,1.30
2023-02-18T18:26:12.428Z,1.23
2023-02-18T18:28:45.336Z,1.63
2023-02-18T18:31:20.048Z,1.67
2023-02-18T18:33:53.566Z,2.03
2023-02-18T18:36:24.906Z,1.38
2023-02-18T18:38:54.551Z,1.65
2023-02-18T18:41:25.517Z,1.38
2023-02-18T18:43:55.094Z,1.45
2023-02-18T18:46:24.578Z,1.88
2023-02-18T18:48:54.063Z,1.60
2023-02-18T18:51:31.459Z,1.58
2023-02-18T18:54:01.123Z,1.38
2023-02-18T18:56:32.054Z,1.40
2023-02-18T18:59:01.674Z,1.35
2023-02-18T19:01:31.276Z,1.42
2023-02-18T19:04:00.795Z,1.23
2023-02-18T19:06:30.271Z,1.30
2023-02-18T19:08:59.699Z,1.20
2023-02-18T19:11:31.431Z,1.38
2023-02-18T19:14:00.919Z,1.40
2023-02-18T19:16:38.397Z,1.00
2023-02-18T19:19:07.778Z,1.77
2023-02-18T19:21:37.247Z,1.70
2023-02-18T19:24:07.223Z,1.95
2023-02-18T19:26:37.992Z,1.58
2023-02-18T19:29:07.375Z,1.33
2023-02-18T19:31:36.867Z,1.75
2023-02-18T19:34:06.810Z,1.80
2023-02-18T19:36:36.246Z,1.40
2023-02-18T19:39:06.057Z,1.27
2023-02-18T19:41:37.050Z,1.33
2023-02-18T19:44:06.879Z,1.10
2023-02-18T19:46:36.288Z,0.85
2023-02-18T19:49:05.823Z,1.42
2023-02-18T19:51:35.293Z,1.20
2023-02-18T19:54:05.127Z,1.30
2023-02-18T19:56:34.641Z,1.80
2023-02-18T19:59:05.591Z,1.20
2023-02-18T20:01:35.170Z,1.27
2023-02-18T20:04:04.794Z,1.33
2023-02-18T20:06:34.255Z,1.05
2023-02-18T20:09:03.740Z,1.42
2023-02-18T20:11:34.160Z,1.77
2023-02-18T20:14:05.040Z,1.17
2023-02-18T20:16:34.606Z,1.25
2023-02-18T20:19:04.285Z,1.42
2023-02-18T20:21:34.109Z,1.88
2023-02-18T20:24:03.981Z,1.77
2023-02-18T20:26:33.640Z,1.67
2023-02-18T20:29:04.660Z,1.35
2023-02-18T20:31:34.957Z,1.38
2023-02-18T20:34:04.522Z,1.25
2023-02-18T20:36:33.966Z,1.40
2023-02-18T20:39:15.698Z,1.17
2023-02-18T20:41:47.625Z,1.67
2023-02-18T20:44:20.124Z,1.52
2023-02-18T20:46:50.962Z,1.33
2023-02-18T20:49:23.222Z,1.63
2023-02-18T20:51:52.680Z,1.53
2023-02-18T20:54:22.750Z,1.95
2023-02-18T20:56:53.721Z,1.60
2023-02-18T20:59:26.094Z,1.27
2023-02-18T21:01:55.782Z,1.60
2023-02-18T21:04:25.261Z,1.58
2023-02-18T21:06:55.342Z,1.67
2023-02-18T21:09:25.977Z,1.23
2023-02-18T21:11:55.492Z,2.28
2023-02-18T21:14:26.732Z,1.73
2023-02-18T21:16:56.422Z,1.70
2023-02-18T21:19:25.964Z,1.40
2023-02-18T21:21:56.902Z,1.42
2023-02-18T21:24:26.324Z,1.20
2023-02-18T21:26:56.200Z,1.38
2023-02-18T21:29:27.327Z,1.58
2023-02-18T21:31:57.481Z,1.40
2023-02-18T21:34:27.168Z,1.40
2023-02-18T21:36:56.666Z,1.30
2023-02-18T21:39:26.139Z,1.40
2023-02-18T21:41:57.099Z,1.10
2023-02-18T21:44:41.285Z,1.33
2023-02-18T21:47:17.540Z,1.52
2023-02-18T21:49:47.019Z,1.58
2023-02-18T21:52:16.442Z,1.50
2023-02-18T21:54:46.691Z,1.30
2023-02-18T21:57:19.734Z,1.40
2023-02-18T21:59:50.810Z,1.08
2023-02-18T22:02:23.391Z,1.38
2023-02-18T22:04:53.851Z,1.27
2023-02-18T22:07:27.361Z,1.25
2023-02-18T22:09:57.573Z,1.52
2023-02-18T22:12:27.945Z,1.40
2023-02-18T22:14:58.768Z,1.33
2023-02-18T22:17:29.749Z,1.40
2023-02-18T22:19:59.391Z,1.40
2023-02-18T22:22:29.054Z,1.30
2023-02-18T22:24:58.558Z,1.00
2023-02-18T22:27:28.051Z,1.25
2023-02-18T22:29:58.869Z,1.77
2023-02-18T22:32:29.100Z,1.35
2023-02-18T22:34:58.935Z,1.20
2023-02-18T22:37:28.580Z,1.50
2023-02-18T22:39:58.107Z,1.40
2023-02-18T22:42:27.630Z,1.27
2023-02-18T22:45:02.670Z,1.40
2023-02-18T22:47:34.519Z,1.50
2023-02-18T22:50:04.062Z,1.35
2023-02-18T22:52:33.704Z,1.60
2023-02-18T22:55:03.340Z,1.17
2023-02-18T22:57:32.873Z,1.30
2023-02-18T23:00:08.921Z,1.40
2023-02-18T23:02:38.464Z,1.33
2023-02-18T23:05:09.237Z,1.30
2023-02-18T23:07:39.850Z,1.48
2023-02-18T23:10:09.763Z,1.27
2023-02-18T23:12:39.139Z,1.52
2023-02-18T23:15:11.703Z,1.80
2023-02-18T23:17:43.281Z,1.55
2023-02-18T23:20:12.827Z,1.50
2023-02-18T23:22:42.252Z,2.17
2023-02-18T23:25:12.110Z,1.50
2023-02-18T23:27:41.672Z,1.58
2023-02-18T23:30:13.835Z,1.50
2023-02-18T23:32:43.387Z,1.60
2023-02-18T23:35:13.010Z,1.50
2023-02-18T23:37:59.961Z,1.63
2023-02-18T23:40:29.529Z,1.40
2023-02-18T23:42:59.076Z,1.90
2023-02-18T23:45:30.108Z,1.88
2023-02-18T23:47:59.587Z,1.92
2023-02-18T23:50:29.120Z,1.75
2023-02-18T23:52:58.502Z,1.70
2023-02-18T23:55:28.048Z,1.52
2023-02-18T23:57:57.565Z,1.60
